sensor_id;sensor_type;location;lat;lon;timestamp;temperature;humidity
78514;SHT31;67814;51.976;5.810;2023-06-04T00:01:15;16.5;46.1
78514;SHT31;67814;51.976;5.810;2023-06-04T00:03:45;16.5;46.2
78514;SHT31;67814;51.976;5.810;2023-06-04T00:06:14;16.5;47.1
78514;SHT31;67814;51.976;5.810;2023-06-04T00:08:44;16.4;46.5
78514;SHT31;67814;51.976;5.810;2023-06-04T00:11:12;16.4;46.4
78514;SHT31;67814;51.976;5.810;2023-06-04T00:13:41;16.4;46.7
78514;SHT31;67814;51.976;5.810;2023-06-04T00:16:10;16.3;46.6
78514;SHT31;67814;51.976;5.810;2023-06-04T00:18:39;16.3;47.0
78514;SHT31;67814;51.976;5.810;2023-06-04T00:21:07;16.3;47.0
78514;SHT31;67814;51.976;5.810;2023-06-04T00:23:36;16.3;46.8
78514;SHT31;67814;51.976;5.810;2023-06-04T00:26:05;16.3;47.1
78514;SHT31;67814;51.976;5.810;2023-06-04T00:28:33;16.2;46.7
78514;SHT31;67814;51.976;5.810;2023-06-04T00:31:04;16.2;46.8
78514;SHT31;67814;51.976;5.810;2023-06-04T00:33:33;16.2;46.7
78514;SHT31;67814;51.976;5.810;2023-06-04T00:36:02;16.1;46.8
78514;SHT31;67814;51.976;5.810;2023-06-04T00:38:31;16.1;46.7
78514;SHT31;67814;51.976;5.810;2023-06-04T00:40:59;16.1;46.7
78514;SHT31;67814;51.976;5.810;2023-06-04T00:43:28;16.0;46.7
78514;SHT31;67814;51.976;5.810;2023-06-04T00:45:58;16.0;46.6
78514;SHT31;67814;51.976;5.810;2023-06-04T00:48:29;16.0;46.8
78514;SHT31;67814;51.976;5.810;2023-06-04T00:50:58;16.0;46.9
78514;SHT31;67814;51.976;5.810;2023-06-04T00:53:27;15.9;46.8
78514;SHT31;67814;51.976;5.810;2023-06-04T00:55:55;15.9;46.5
78514;SHT31;67814;51.976;5.810;2023-06-04T00:58:24;15.9;46.4
78514;SHT31;67814;51.976;5.810;2023-06-04T01:00:56;15.9;46.3
78514;SHT31;67814;51.976;5.810;2023-06-04T01:03:28;15.8;46.5
78514;SHT31;67814;51.976;5.810;2023-06-04T01:06:07;15.8;46.3
78514;SHT31;67814;51.976;5.810;2023-06-04T01:08:39;15.8;46.4
78514;SHT31;67814;51.976;5.810;2023-06-04T01:11:09;15.7;46.3
78514;SHT31;67814;51.976;5.810;2023-06-04T01:13:38;15.7;46.3
78514;SHT31;67814;51.976;5.810;2023-06-04T01:16:08;15.7;47.1
78514;SHT31;67814;51.976;5.810;2023-06-04T01:18:39;15.6;46.4
78514;SHT31;67814;51.976;5.810;2023-06-04T01:21:12;15.6;46.8
78514;SHT31;67814;51.976;5.810;2023-06-04T01:23:48;15.6;46.8
78514;SHT31;67814;51.976;5.810;2023-06-04T01:26:22;15.6;46.9
78514;SHT31;67814;51.976;5.810;2023-06-04T01:28:51;15.5;46.5
78514;SHT31;67814;51.976;5.810;2023-06-04T01:31:21;15.5;46.9
78514;SHT31;67814;51.976;5.810;2023-06-04T01:33:53;15.5;46.7
78514;SHT31;67814;51.976;5.810;2023-06-04T01:36:22;15.5;46.8
78514;SHT31;67814;51.976;5.810;2023-06-04T01:38:51;15.5;46.7
78514;SHT31;67814;51.976;5.810;2023-06-04T01:41:19;15.4;46.6
78514;SHT31;67814;51.976;5.810;2023-06-04T01:43:48;15.4;46.6
78514;SHT31;67814;51.976;5.810;2023-06-04T01:46:16;15.4;46.6
78514;SHT31;67814;51.976;5.810;2023-06-04T01:48:45;15.4;46.6
78514;SHT31;67814;51.976;5.810;2023-06-04T01:51:15;15.4;46.7
78514;SHT31;67814;51.976;5.810;2023-06-04T01:53:44;15.4;46.9
78514;SHT31;67814;51.976;5.810;2023-06-04T01:56:13;15.5;46.8
78514;SHT31;67814;51.976;5.810;2023-06-04T01:58:43;15.6;46.4
78514;SHT31;67814;51.976;5.810;2023-06-04T02:01:12;15.7;46.2
78514;SHT31;67814;51.976;5.810;2023-06-04T02:03:44;15.7;45.8
78514;SHT31;67814;51.976;5.810;2023-06-04T02:06:13;15.7;45.9
78514;SHT31;67814;51.976;5.810;2023-06-04T02:08:41;15.7;45.8
78514;SHT31;67814;51.976;5.810;2023-06-04T02:11:10;15.6;45.8
78514;SHT31;67814;51.976;5.810;2023-06-04T02:13:38;15.6;45.9
78514;SHT31;67814;51.976;5.810;2023-06-04T02:16:07;15.5;46.1
78514;SHT31;67814;51.976;5.810;2023-06-04T02:18:38;15.5;46.0
78514;SHT31;67814;51.976;5.810;2023-06-04T02:21:07;15.4;46.3
78514;SHT31;67814;51.976;5.810;2023-06-04T02:23:35;15.4;46.3
78514;SHT31;67814;51.976;5.810;2023-06-04T02:26:04;15.3;46.5
78514;SHT31;67814;51.976;5.810;2023-06-04T02:28:35;15.3;46.5
78514;SHT31;67814;51.976;5.810;2023-06-04T02:31:03;15.2;46.6
78514;SHT31;67814;51.976;5.810;2023-06-04T02:33:32;15.1;47.2
78514;SHT31;67814;51.976;5.810;2023-06-04T02:36:01;15.1;47.1
78514;SHT31;67814;51.976;5.810;2023-06-04T02:38:30;15.1;47.1
78514;SHT31;67814;51.976;5.810;2023-06-04T02:40:58;15.0;47.3
78514;SHT31;67814;51.976;5.810;2023-06-04T02:43:26;15.0;47.2
78514;SHT31;67814;51.976;5.810;2023-06-04T02:45:55;14.9;47.4
78514;SHT31;67814;51.976;5.810;2023-06-04T02:48:23;14.9;47.5
78514;SHT31;67814;51.976;5.810;2023-06-04T02:50:52;14.9;48.0
78514;SHT31;67814;51.976;5.810;2023-06-04T02:53:21;14.8;47.9
78514;SHT31;67814;51.976;5.810;2023-06-04T02:55:50;14.8;48.4
78514;SHT31;67814;51.976;5.810;2023-06-04T02:58:19;14.8;48.3
78514;SHT31;67814;51.976;5.810;2023-06-04T03:00:52;14.7;48.2
78514;SHT31;67814;51.976;5.810;2023-06-04T03:03:22;14.7;48.0
78514;SHT31;67814;51.976;5.810;2023-06-04T03:05:50;14.7;48.3
78514;SHT31;67814;51.976;5.810;2023-06-04T03:08:20;14.6;48.7
78514;SHT31;67814;51.976;5.810;2023-06-04T03:10:50;14.6;48.6
78514;SHT31;67814;51.976;5.810;2023-06-04T03:13:19;14.6;48.9
78514;SHT31;67814;51.976;5.810;2023-06-04T03:15:47;14.6;48.8
78514;SHT31;67814;51.976;5.810;2023-06-04T03:18:16;14.5;49.0
78514;SHT31;67814;51.976;5.810;2023-06-04T03:20:44;14.5;49.0
78514;SHT31;67814;51.976;5.810;2023-06-04T03:23:13;14.5;49.1
78514;SHT31;67814;51.976;5.810;2023-06-04T03:25:41;14.4;49.2
78514;SHT31;67814;51.976;5.810;2023-06-04T03:28:10;14.4;49.6
78514;SHT31;67814;51.976;5.810;2023-06-04T03:30:39;14.3;50.6
78514;SHT31;67814;51.976;5.810;2023-06-04T03:33:07;14.3;49.8
78514;SHT31;67814;51.976;5.810;2023-06-04T03:35:36;14.3;50.0
78514;SHT31;67814;51.976;5.810;2023-06-04T03:38:04;14.3;50.3
78514;SHT31;67814;51.976;5.810;2023-06-04T03:40:33;14.3;50.2
78514;SHT31;67814;51.976;5.810;2023-06-04T03:43:03;14.2;50.3
78514;SHT31;67814;51.976;5.810;2023-06-04T03:45:33;14.2;50.4
78514;SHT31;67814;51.976;5.810;2023-06-04T03:48:01;14.2;50.5
78514;SHT31;67814;51.976;5.810;2023-06-04T03:50:30;14.2;50.6
78514;SHT31;67814;51.976;5.810;2023-06-04T03:52:58;14.1;50.7
78514;SHT31;67814;51.976;5.810;2023-06-04T03:55:27;14.1;50.9
78514;SHT31;67814;51.976;5.810;2023-06-04T03:57:58;14.1;50.9
78514;SHT31;67814;51.976;5.810;2023-06-04T04:00:27;14.1;51.2
78514;SHT31;67814;51.976;5.810;2023-06-04T04:02:57;14.1;51.1
78514;SHT31;67814;51.976;5.810;2023-06-04T04:05:26;14.1;51.2
78514;SHT31;67814;51.976;5.810;2023-06-04T04:07:54;14.1;51.9
78514;SHT31;67814;51.976;5.810;2023-06-04T04:10:23;14.1;51.5
78514;SHT31;67814;51.976;5.810;2023-06-04T04:12:52;14.0;51.7
78514;SHT31;67814;51.976;5.810;2023-06-04T04:15:21;14.0;52.0
78514;SHT31;67814;51.976;5.810;2023-06-04T04:17:49;14.0;52.8
78514;SHT31;67814;51.976;5.810;2023-06-04T04:20:18;14.0;52.0
78514;SHT31;67814;51.976;5.810;2023-06-04T04:22:47;14.0;52.2
78514;SHT31;67814;51.976;5.810;2023-06-04T04:25:16;14.0;52.4
78514;SHT31;67814;51.976;5.810;2023-06-04T04:27:44;14.1;52.6
78514;SHT31;67814;51.976;5.810;2023-06-04T04:30:14;14.1;52.9
78514;SHT31;67814;51.976;5.810;2023-06-04T04:32:44;14.1;53.3
78514;SHT31;67814;51.976;5.810;2023-06-04T04:35:15;14.1;52.5
78514;SHT31;67814;51.976;5.810;2023-06-04T04:37:44;14.2;52.6
78514;SHT31;67814;51.976;5.810;2023-06-04T04:40:15;14.2;52.8
78514;SHT31;67814;51.976;5.810;2023-06-04T04:42:43;14.2;53.0
78514;SHT31;67814;51.976;5.810;2023-06-04T04:45:12;14.2;52.9
78514;SHT31;67814;51.976;5.810;2023-06-04T04:47:40;14.2;53.1
78514;SHT31;67814;51.976;5.810;2023-06-04T04:50:10;14.2;53.3
78514;SHT31;67814;51.976;5.810;2023-06-04T04:52:41;14.2;53.3
78514;SHT31;67814;51.976;5.810;2023-06-04T04:55:09;14.3;53.4
78514;SHT31;67814;51.976;5.810;2023-06-04T04:57:39;14.3;53.7
78514;SHT31;67814;51.976;5.810;2023-06-04T05:00:08;14.3;53.6
78514;SHT31;67814;51.976;5.810;2023-06-04T05:02:37;14.4;53.5
78514;SHT31;67814;51.976;5.810;2023-06-04T05:05:06;14.5;53.5
78514;SHT31;67814;51.976;5.810;2023-06-04T05:07:37;14.6;53.4
78514;SHT31;67814;51.976;5.810;2023-06-04T05:10:06;14.6;53.3
78514;SHT31;67814;51.976;5.810;2023-06-04T05:12:34;14.7;53.1
78514;SHT31;67814;51.976;5.810;2023-06-04T05:15:03;14.8;53.5
78514;SHT31;67814;51.976;5.810;2023-06-04T05:17:32;15.0;52.6
78514;SHT31;67814;51.976;5.810;2023-06-04T05:20:02;15.1;52.8
78514;SHT31;67814;51.976;5.810;2023-06-04T05:22:31;15.2;52.4
78514;SHT31;67814;51.976;5.810;2023-06-04T05:25:02;15.4;52.2
78514;SHT31;67814;51.976;5.810;2023-06-04T05:27:32;15.6;51.3
78514;SHT31;67814;51.976;5.810;2023-06-04T05:30:02;15.7;51.2
78514;SHT31;67814;51.976;5.810;2023-06-04T05:32:30;15.9;49.9
78514;SHT31;67814;51.976;5.810;2023-06-04T05:35:00;16.0;50.2
78514;SHT31;67814;51.976;5.810;2023-06-04T05:37:31;16.1;50.8
78514;SHT31;67814;51.976;5.810;2023-06-04T05:40:01;16.2;49.7
78514;SHT31;67814;51.976;5.810;2023-06-04T05:42:31;16.4;50.3
78514;SHT31;67814;51.976;5.810;2023-06-04T05:45:00;16.5;50.8
78514;SHT31;67814;51.976;5.810;2023-06-04T05:47:29;16.7;49.4
78514;SHT31;67814;51.976;5.810;2023-06-04T05:49:58;16.9;48.1
78514;SHT31;67814;51.976;5.810;2023-06-04T05:52:27;17.0;49.2
78514;SHT31;67814;51.976;5.810;2023-06-04T05:54:55;17.1;47.4
78514;SHT31;67814;51.976;5.810;2023-06-04T05:57:25;17.3;47.4
78514;SHT31;67814;51.976;5.810;2023-06-04T05:59:54;17.4;47.7
78514;SHT31;67814;51.976;5.810;2023-06-04T06:02:22;17.6;47.3
78514;SHT31;67814;51.976;5.810;2023-06-04T06:04:51;17.8;47.5
78514;SHT31;67814;51.976;5.810;2023-06-04T06:07:20;18.0;46.6
78514;SHT31;67814;51.976;5.810;2023-06-04T06:09:48;18.2;46.8
78514;SHT31;67814;51.976;5.810;2023-06-04T06:12:17;18.4;44.6
78514;SHT31;67814;51.976;5.810;2023-06-04T06:14:45;18.7;44.3
78514;SHT31;67814;51.976;5.810;2023-06-04T06:17:14;18.9;44.5
78514;SHT31;67814;51.976;5.810;2023-06-04T06:19:45;19.1;43.7
78514;SHT31;67814;51.976;5.810;2023-06-04T06:22:13;19.4;43.5
78514;SHT31;67814;51.976;5.810;2023-06-04T06:24:42;19.6;42.4
78514;SHT31;67814;51.976;5.810;2023-06-04T06:27:11;19.8;41.9
78514;SHT31;67814;51.976;5.810;2023-06-04T06:29:41;20.0;40.9
78514;SHT31;67814;51.976;5.810;2023-06-04T06:32:10;20.2;42.2
78514;SHT31;67814;51.976;5.810;2023-06-04T06:34:39;20.5;40.8
78514;SHT31;67814;51.976;5.810;2023-06-04T06:37:08;20.7;42.2
78514;SHT31;67814;51.976;5.810;2023-06-04T06:39:38;21.1;40.0
78514;SHT31;67814;51.976;5.810;2023-06-04T06:42:07;21.5;39.0
78514;SHT31;67814;51.976;5.810;2023-06-04T06:44:35;21.8;38.5
78514;SHT31;67814;51.976;5.810;2023-06-04T06:47:04;22.0;38.5
78514;SHT31;67814;51.976;5.810;2023-06-04T06:49:32;22.2;37.7
78514;SHT31;67814;51.976;5.810;2023-06-04T06:52:00;22.5;37.4
78514;SHT31;67814;51.976;5.810;2023-06-04T06:54:29;22.7;37.2
78514;SHT31;67814;51.976;5.810;2023-06-04T06:56:57;22.9;36.1
78514;SHT31;67814;51.976;5.810;2023-06-04T06:59:27;23.1;34.6
78514;SHT31;67814;51.976;5.810;2023-06-04T07:01:55;23.2;35.0
78514;SHT31;67814;51.976;5.810;2023-06-04T07:04:24;23.3;35.3
78514;SHT31;67814;51.976;5.810;2023-06-04T07:06:52;23.4;35.1
78514;SHT31;67814;51.976;5.810;2023-06-04T07:09:23;23.5;34.1
78514;SHT31;67814;51.976;5.810;2023-06-04T07:11:51;23.6;34.2
78514;SHT31;67814;51.976;5.810;2023-06-04T07:14:20;23.7;36.0
78514;SHT31;67814;51.976;5.810;2023-06-04T07:16:48;23.9;33.8
78514;SHT31;67814;51.976;5.810;2023-06-04T07:19:17;24.0;34.3
78514;SHT31;67814;51.976;5.810;2023-06-04T07:21:46;24.1;33.0
78514;SHT31;67814;51.976;5.810;2023-06-04T07:24:14;24.1;33.9
78514;SHT31;67814;51.976;5.810;2023-06-04T07:26:43;24.2;33.6
78514;SHT31;67814;51.976;5.810;2023-06-04T07:29:11;24.3;32.7
78514;SHT31;67814;51.976;5.810;2023-06-04T07:31:41;24.4;32.0
78514;SHT31;67814;51.976;5.810;2023-06-04T07:34:09;24.4;32.9
78514;SHT31;67814;51.976;5.810;2023-06-04T07:36:38;24.5;32.6
78514;SHT31;67814;51.976;5.810;2023-06-04T07:39:07;24.5;31.6
78514;SHT31;67814;51.976;5.810;2023-06-04T07:41:35;24.6;31.3
78514;SHT31;67814;51.976;5.810;2023-06-04T07:44:04;24.6;31.6
78514;SHT31;67814;51.976;5.810;2023-06-04T07:46:32;24.6;31.8
78514;SHT31;67814;51.976;5.810;2023-06-04T07:49:01;24.6;32.1
78514;SHT31;67814;51.976;5.810;2023-06-04T07:51:29;24.6;32.0
78514;SHT31;67814;51.976;5.810;2023-06-04T07:53:57;24.6;31.1
78514;SHT31;67814;51.976;5.810;2023-06-04T07:56:26;24.5;30.7
78514;SHT31;67814;51.976;5.810;2023-06-04T07:58:55;24.4;30.8
78514;SHT31;67814;51.976;5.810;2023-06-04T08:01:26;24.2;31.7
78514;SHT31;67814;51.976;5.810;2023-06-04T08:03:55;24.1;31.3
78514;SHT31;67814;51.976;5.810;2023-06-04T08:06:25;24.0;32.1
78514;SHT31;67814;51.976;5.810;2023-06-04T08:08:53;23.8;32.5
78514;SHT31;67814;51.976;5.810;2023-06-04T08:11:22;23.6;32.8
78514;SHT31;67814;51.976;5.810;2023-06-04T08:13:51;23.6;31.9
78514;SHT31;67814;51.976;5.810;2023-06-04T08:16:19;23.5;32.8
78514;SHT31;67814;51.976;5.810;2023-06-04T08:18:48;23.4;32.1
78514;SHT31;67814;51.976;5.810;2023-06-04T08:21:27;23.3;31.4
78514;SHT31;67814;51.976;5.810;2023-06-04T08:23:56;23.2;32.0
78514;SHT31;67814;51.976;5.810;2023-06-04T08:26:25;23.1;32.3
78514;SHT31;67814;51.976;5.810;2023-06-04T08:28:55;23.0;32.0
78514;SHT31;67814;51.976;5.810;2023-06-04T08:31:23;23.0;31.0
78514;SHT31;67814;51.976;5.810;2023-06-04T08:33:52;22.9;32.0
78514;SHT31;67814;51.976;5.810;2023-06-04T08:36:21;22.8;32.5
78514;SHT31;67814;51.976;5.810;2023-06-04T08:38:50;22.8;32.4
78514;SHT31;67814;51.976;5.810;2023-06-04T08:41:25;22.8;31.9
78514;SHT31;67814;51.976;5.810;2023-06-04T08:43:57;22.7;32.3
78514;SHT31;67814;51.976;5.810;2023-06-04T08:46:28;22.7;31.8
78514;SHT31;67814;51.976;5.810;2023-06-04T08:49:00;22.7;30.9
78514;SHT31;67814;51.976;5.810;2023-06-04T08:51:33;22.8;30.8
78514;SHT31;67814;51.976;5.810;2023-06-04T08:54:04;22.7;30.7
78514;SHT31;67814;51.976;5.810;2023-06-04T08:56:34;22.7;30.2
78514;SHT31;67814;51.976;5.810;2023-06-04T08:59:05;22.7;30.9
78514;SHT31;67814;51.976;5.810;2023-06-04T09:01:35;22.6;29.9
78514;SHT31;67814;51.976;5.810;2023-06-04T09:04:06;22.6;30.6
78514;SHT31;67814;51.976;5.810;2023-06-04T09:06:38;22.6;31.5
78514;SHT31;67814;51.976;5.810;2023-06-04T09:09:10;22.6;30.1
78514;SHT31;67814;51.976;5.810;2023-06-04T09:11:51;22.6;30.4
78514;SHT31;67814;51.976;5.810;2023-06-04T09:14:21;22.7;30.8
78514;SHT31;67814;51.976;5.810;2023-06-04T09:16:51;22.7;30.3
78514;SHT31;67814;51.976;5.810;2023-06-04T09:19:20;22.7;29.8
78514;SHT31;67814;51.976;5.810;2023-06-04T09:21:51;22.8;30.8
78514;SHT31;67814;51.976;5.810;2023-06-04T09:24:22;22.9;28.9
78514;SHT31;67814;51.976;5.810;2023-06-04T09:26:51;23.0;28.5
78514;SHT31;67814;51.976;5.810;2023-06-04T09:29:20;23.0;29.1
78514;SHT31;67814;51.976;5.810;2023-06-04T09:31:59;23.0;29.0
78514;SHT31;67814;51.976;5.810;2023-06-04T09:34:30;23.1;28.0
78514;SHT31;67814;51.976;5.810;2023-06-04T09:36:59;23.1;28.1
78514;SHT31;67814;51.976;5.810;2023-06-04T09:39:28;23.1;28.2
78514;SHT31;67814;51.976;5.810;2023-06-04T09:42:01;23.1;27.3
78514;SHT31;67814;51.976;5.810;2023-06-04T09:44:30;23.2;28.0
78514;SHT31;67814;51.976;5.810;2023-06-04T09:46:59;23.2;27.4
78514;SHT31;67814;51.976;5.810;2023-06-04T09:49:28;23.2;27.1
78514;SHT31;67814;51.976;5.810;2023-06-04T09:51:56;23.2;27.4
78514;SHT31;67814;51.976;5.810;2023-06-04T09:54:36;23.1;28.2
78514;SHT31;67814;51.976;5.810;2023-06-04T09:57:16;23.2;29.0
78514;SHT31;67814;51.976;5.810;2023-06-04T09:59:48;23.2;28.7
78514;SHT31;67814;51.976;5.810;2023-06-04T10:02:20;23.2;27.7
78514;SHT31;67814;51.976;5.810;2023-06-04T10:04:54;23.2;28.0
78514;SHT31;67814;51.976;5.810;2023-06-04T10:07:25;23.3;27.8
78514;SHT31;67814;51.976;5.810;2023-06-04T10:09:54;23.3;28.7
78514;SHT31;67814;51.976;5.810;2023-06-04T10:12:26;23.3;28.8
78514;SHT31;67814;51.976;5.810;2023-06-04T10:15:02;23.3;29.2
78514;SHT31;67814;51.976;5.810;2023-06-04T10:17:35;23.4;28.1
78514;SHT31;67814;51.976;5.810;2023-06-04T10:20:05;23.4;28.5
78514;SHT31;67814;51.976;5.810;2023-06-04T10:22:37;23.5;28.6
78514;SHT31;67814;51.976;5.810;2023-06-04T10:25:06;23.5;27.9
78514;SHT31;67814;51.976;5.810;2023-06-04T10:27:37;23.5;28.7
78514;SHT31;67814;51.976;5.810;2023-06-04T10:30:07;23.5;29.3
78514;SHT31;67814;51.976;5.810;2023-06-04T10:32:37;23.5;29.0
78514;SHT31;67814;51.976;5.810;2023-06-04T10:35:06;23.5;29.4
78514;SHT31;67814;51.976;5.810;2023-06-04T10:37:36;23.6;28.8
78514;SHT31;67814;51.976;5.810;2023-06-04T10:40:07;23.6;28.0
78514;SHT31;67814;51.976;5.810;2023-06-04T10:42:42;23.6;28.7
78514;SHT31;67814;51.976;5.810;2023-06-04T10:45:11;23.6;28.5
78514;SHT31;67814;51.976;5.810;2023-06-04T10:47:41;23.7;28.7
78514;SHT31;67814;51.976;5.810;2023-06-04T10:50:11;23.7;27.5
78514;SHT31;67814;51.976;5.810;2023-06-04T10:52:53;23.7;28.1
78514;SHT31;67814;51.976;5.810;2023-06-04T10:55:24;23.7;29.0
78514;SHT31;67814;51.976;5.810;2023-06-04T10:57:54;23.7;29.5
78514;SHT31;67814;51.976;5.810;2023-06-04T11:00:36;23.8;29.2
78514;SHT31;67814;51.976;5.810;2023-06-04T11:03:06;23.8;28.4
78514;SHT31;67814;51.976;5.810;2023-06-04T11:05:36;23.9;28.6
78514;SHT31;67814;51.976;5.810;2023-06-04T11:08:05;23.9;28.9
78514;SHT31;67814;51.976;5.810;2023-06-04T11:10:36;23.9;29.0
78514;SHT31;67814;51.976;5.810;2023-06-04T11:13:05;24.0;29.4
78514;SHT31;67814;51.976;5.810;2023-06-04T11:15:41;24.0;29.0
78514;SHT31;67814;51.976;5.810;2023-06-04T11:18:14;24.0;29.4
78514;SHT31;67814;51.976;5.810;2023-06-04T11:20:43;24.1;28.8
78514;SHT31;67814;51.976;5.810;2023-06-04T11:23:12;24.1;29.6
78514;SHT31;67814;51.976;5.810;2023-06-04T11:25:42;24.1;29.6
78514;SHT31;67814;51.976;5.810;2023-06-04T11:28:16;24.2;30.1
78514;SHT31;67814;51.976;5.810;2023-06-04T11:30:57;24.2;29.2
78514;SHT31;67814;51.976;5.810;2023-06-04T11:33:29;24.2;28.8
78514;SHT31;67814;51.976;5.810;2023-06-04T11:35:59;24.3;27.6
78514;SHT31;67814;51.976;5.810;2023-06-04T11:38:28;24.2;28.1
78514;SHT31;67814;51.976;5.810;2023-06-04T11:40:58;24.2;28.2
78514;SHT31;67814;51.976;5.810;2023-06-04T11:43:28;24.2;27.9
78514;SHT31;67814;51.976;5.810;2023-06-04T11:45:57;24.2;27.4
78514;SHT31;67814;51.976;5.810;2023-06-04T11:48:26;24.2;27.5
78514;SHT31;67814;51.976;5.810;2023-06-04T11:50:54;24.3;28.2
78514;SHT31;67814;51.976;5.810;2023-06-04T11:53:25;24.3;27.8
78514;SHT31;67814;51.976;5.810;2023-06-04T11:55:56;24.3;27.8
78514;SHT31;67814;51.976;5.810;2023-06-04T11:58:25;24.3;28.0
78514;SHT31;67814;51.976;5.810;2023-06-04T12:00:55;24.4;28.3
78514;SHT31;67814;51.976;5.810;2023-06-04T12:03:34;24.4;28.1
78514;SHT31;67814;51.976;5.810;2023-06-04T12:06:11;24.5;28.9
78514;SHT31;67814;51.976;5.810;2023-06-04T12:08:46;24.5;28.0
78514;SHT31;67814;51.976;5.810;2023-06-04T12:11:25;24.6;27.7
78514;SHT31;67814;51.976;5.810;2023-06-04T12:13:56;24.6;27.8
78514;SHT31;67814;51.976;5.810;2023-06-04T12:16:26;24.6;27.4
78514;SHT31;67814;51.976;5.810;2023-06-04T12:19:05;24.7;27.7
78514;SHT31;67814;51.976;5.810;2023-06-04T12:21:35;24.7;27.5
78514;SHT31;67814;51.976;5.810;2023-06-04T12:24:12;24.7;27.5
78514;SHT31;67814;51.976;5.810;2023-06-04T12:26:42;24.8;27.0
78514;SHT31;67814;51.976;5.810;2023-06-04T12:29:12;24.8;27.1
78514;SHT31;67814;51.976;5.810;2023-06-04T12:31:43;24.8;27.1
78514;SHT31;67814;51.976;5.810;2023-06-04T12:34:13;24.8;27.9
78514;SHT31;67814;51.976;5.810;2023-06-04T12:36:43;24.8;28.2
78514;SHT31;67814;51.976;5.810;2023-06-04T12:39:12;24.8;27.4
78514;SHT31;67814;51.976;5.810;2023-06-04T12:41:44;24.9;28.3
78514;SHT31;67814;51.976;5.810;2023-06-04T12:44:13;24.9;27.0
78514;SHT31;67814;51.976;5.810;2023-06-04T12:46:42;25.0;27.3
78514;SHT31;67814;51.976;5.810;2023-06-04T12:49:11;25.0;27.6
78514;SHT31;67814;51.976;5.810;2023-06-04T12:51:39;25.1;27.0
78514;SHT31;67814;51.976;5.810;2023-06-04T12:54:08;25.1;27.1
78514;SHT31;67814;51.976;5.810;2023-06-04T12:56:39;25.0;26.6
78514;SHT31;67814;51.976;5.810;2023-06-04T12:59:08;25.0;27.2
78514;SHT31;67814;51.976;5.810;2023-06-04T13:01:37;25.0;27.3
78514;SHT31;67814;51.976;5.810;2023-06-04T13:04:06;25.0;27.5
78514;SHT31;67814;51.976;5.810;2023-06-04T13:06:35;25.0;27.8
78514;SHT31;67814;51.976;5.810;2023-06-04T13:09:05;25.0;27.7
78514;SHT31;67814;51.976;5.810;2023-06-04T13:11:37;25.0;27.9
78514;SHT31;67814;51.976;5.810;2023-06-04T13:14:07;25.1;27.2
78514;SHT31;67814;51.976;5.810;2023-06-04T13:16:37;25.1;27.6
78514;SHT31;67814;51.976;5.810;2023-06-04T13:19:07;25.1;28.0
78514;SHT31;67814;51.976;5.810;2023-06-04T13:21:36;25.1;27.6
78514;SHT31;67814;51.976;5.810;2023-06-04T13:24:04;25.1;27.6
78514;SHT31;67814;51.976;5.810;2023-06-04T13:26:35;25.1;27.5
78514;SHT31;67814;51.976;5.810;2023-06-04T13:29:05;25.1;27.3
78514;SHT31;67814;51.976;5.810;2023-06-04T13:31:33;25.1;27.2
78514;SHT31;67814;51.976;5.810;2023-06-04T13:34:02;25.1;27.0
78514;SHT31;67814;51.976;5.810;2023-06-04T13:36:31;25.1;27.3
78514;SHT31;67814;51.976;5.810;2023-06-04T13:38:59;25.1;28.0
78514;SHT31;67814;51.976;5.810;2023-06-04T13:41:28;25.1;27.8
78514;SHT31;67814;51.976;5.810;2023-06-04T13:43:56;25.1;27.4
78514;SHT31;67814;51.976;5.810;2023-06-04T13:46:26;25.1;27.7
78514;SHT31;67814;51.976;5.810;2023-06-04T13:48:55;25.1;27.5
78514;SHT31;67814;51.976;5.810;2023-06-04T13:51:23;25.1;28.6
78514;SHT31;67814;51.976;5.810;2023-06-04T13:53:53;25.1;28.1
78514;SHT31;67814;51.976;5.810;2023-06-04T13:56:22;25.1;27.7
78514;SHT31;67814;51.976;5.810;2023-06-04T13:58:51;25.1;28.1
78514;SHT31;67814;51.976;5.810;2023-06-04T14:01:21;25.1;28.3
78514;SHT31;67814;51.976;5.810;2023-06-04T14:03:51;25.1;28.6
78514;SHT31;67814;51.976;5.810;2023-06-04T14:06:20;25.2;28.0
78514;SHT31;67814;51.976;5.810;2023-06-04T14:08:50;25.2;27.2
78514;SHT31;67814;51.976;5.810;2023-06-04T14:11:19;25.2;27.6
78514;SHT31;67814;51.976;5.810;2023-06-04T14:13:48;25.2;27.6
78514;SHT31;67814;51.976;5.810;2023-06-04T14:16:17;25.2;27.6
78514;SHT31;67814;51.976;5.810;2023-06-04T14:18:45;25.2;27.4
78514;SHT31;67814;51.976;5.810;2023-06-04T14:21:14;25.2;27.7
78514;SHT31;67814;51.976;5.810;2023-06-04T14:23:44;25.3;27.6
78514;SHT31;67814;51.976;5.810;2023-06-04T14:26:13;25.3;27.8
78514;SHT31;67814;51.976;5.810;2023-06-04T14:28:44;25.3;27.3
78514;SHT31;67814;51.976;5.810;2023-06-04T14:31:12;25.4;27.4
78514;SHT31;67814;51.976;5.810;2023-06-04T14:33:41;25.4;27.6
78514;SHT31;67814;51.976;5.810;2023-06-04T14:36:11;25.4;27.3
78514;SHT31;67814;51.976;5.810;2023-06-04T14:38:40;25.4;27.6
78514;SHT31;67814;51.976;5.810;2023-06-04T14:41:08;25.4;27.5
78514;SHT31;67814;51.976;5.810;2023-06-04T14:43:37;25.4;28.0
78514;SHT31;67814;51.976;5.810;2023-06-04T14:46:06;25.4;27.1
78514;SHT31;67814;51.976;5.810;2023-06-04T14:48:34;25.5;27.1
78514;SHT31;67814;51.976;5.810;2023-06-04T14:51:03;25.5;27.8
78514;SHT31;67814;51.976;5.810;2023-06-04T14:53:32;25.5;27.9
78514;SHT31;67814;51.976;5.810;2023-06-04T14:56:00;25.5;27.6
78514;SHT31;67814;51.976;5.810;2023-06-04T14:58:29;25.5;27.4
78514;SHT31;67814;51.976;5.810;2023-06-04T15:00:58;25.5;27.7
78514;SHT31;67814;51.976;5.810;2023-06-04T15:03:30;25.5;28.9
78514;SHT31;67814;51.976;5.810;2023-06-04T15:05:59;25.5;28.2
78514;SHT31;67814;51.976;5.810;2023-06-04T15:08:27;25.5;28.7
78514;SHT31;67814;51.976;5.810;2023-06-04T15:10:57;25.5;28.6
78514;SHT31;67814;51.976;5.810;2023-06-04T15:13:26;25.5;28.1
78514;SHT31;67814;51.976;5.810;2023-06-04T15:15:55;25.5;27.8
78514;SHT31;67814;51.976;5.810;2023-06-04T15:18:27;25.5;27.3
78514;SHT31;67814;51.976;5.810;2023-06-04T15:20:56;25.5;27.8
78514;SHT31;67814;51.976;5.810;2023-06-04T15:23:25;25.5;27.3
78514;SHT31;67814;51.976;5.810;2023-06-04T15:25:54;25.5;27.8
78514;SHT31;67814;51.976;5.810;2023-06-04T15:28:23;25.5;27.6
78514;SHT31;67814;51.976;5.810;2023-06-04T15:30:52;25.6;27.2
78514;SHT31;67814;51.976;5.810;2023-06-04T15:33:22;25.6;28.4
78514;SHT31;67814;51.976;5.810;2023-06-04T15:35:52;25.6;27.8
78514;SHT31;67814;51.976;5.810;2023-06-04T15:38:24;25.6;27.8
78514;SHT31;67814;51.976;5.810;2023-06-04T15:40:54;25.6;28.2
78514;SHT31;67814;51.976;5.810;2023-06-04T15:43:24;25.7;27.9
78514;SHT31;67814;51.976;5.810;2023-06-04T15:45:55;25.7;28.0
78514;SHT31;67814;51.976;5.810;2023-06-04T15:48:25;25.7;28.1
78514;SHT31;67814;51.976;5.810;2023-06-04T15:50:55;25.6;28.7
78514;SHT31;67814;51.976;5.810;2023-06-04T15:53:24;25.6;28.3
78514;SHT31;67814;51.976;5.810;2023-06-04T15:55:53;25.6;28.4
78514;SHT31;67814;51.976;5.810;2023-06-04T15:58:24;25.6;28.9
78514;SHT31;67814;51.976;5.810;2023-06-04T16:00:53;25.6;28.7
78514;SHT31;67814;51.976;5.810;2023-06-04T16:03:22;25.5;28.8
78514;SHT31;67814;51.976;5.810;2023-06-04T16:05:50;25.5;28.8
78514;SHT31;67814;51.976;5.810;2023-06-04T16:08:19;25.5;29.1
78514;SHT31;67814;51.976;5.810;2023-06-04T16:10:48;25.5;29.3
78514;SHT31;67814;51.976;5.810;2023-06-04T16:13:18;25.5;28.9
78514;SHT31;67814;51.976;5.810;2023-06-04T16:15:47;25.5;29.1
78514;SHT31;67814;51.976;5.810;2023-06-04T16:18:16;25.4;29.1